My Meet Scores
Evelyn Jehl, Professional Gymnastics Center - MyMeetScores.com
Top100 | Top Teams | Upcoming Meets | Completed Meets | Latest | Add Scores | Help| Support | Bookmark and Share

Evelyn Jehl, Professional Gymnastics Center
Personal Bests
LevelVault BarsBeamFloorAA
38.3507.150 8.6008.57532.675
49.1009.675 9.3759.62537.025
69.2009.650 9.6509.65037.900
79.4009.800 9.8509.80038.700
89.5509.725 9.8259.77538.625
Scores on America's Top 100as of 10.05.2022
Year Level Vault Bars Beam Floor AA
2021 79.85038.700
2022 89.825, 9.775, 9.7509.77538.625

Click here to view our exclusive Top 100 Collection
Meet Scores
Date Meet Team Session Level Division Vault Bars Beam Floor AA
2022-04-28 Region 5 Level 6-8 Regional Championship Professional Gymnastics Center B09 8 Ch A2 9.450 5T 9.675 5 9.775 2T 9.475 5T 38.375 2
2022-04-27 2022 Region 5 Level 6,7,8 Championships Professional Gymnastics Center B09 8 Ch A2 9.450 5T 9.675 5 9.775 2T 9.475 5T 38.375 2
2022-04-01 Level 6-7-8 State 2022 Professional Gymnastics Center 01 8 Jr A 9.375 7 9.600 2 9.525 4 9.725 1 38.225 1
2022-03-10 Lucky Invite Professional Gymnastics Center A11 8 Younger 9.200 4T 9.525 3 9.825 1 9.525 2 38.075 1T
2022-02-26 Yurchenko Invitational Professional Gymnastics Center 4 8 Junior A 9.550 1 9.725 1 9.675 1T 9.675 1 38.625 1
2022-02-04 Big Chill Professional Gymnastics Center 5 8 Jr 9.250 1 9.650 1 9.750 1 9.475 1 38.125 1
2022-01-21 UGA Invitational Professional Gymnastics Center 1A 8 Junior 9.375 2 9.650 2 9.350 2 9.775 1 38.150 1
2022-01-14 Leenda%27s Island Adventure Professional Gymnastics Center G06 8 Jr A 8.975 7 9.500 2T 9.550 1 9.550 1 37.575 1
2021-12-17 2021 Women%27s Hawaiian Pineapple Invitational Professional Gymnastics Center 7A 8 Oahu 9.350 3T 9.400 6T 9.150 6 9.125 2 37.025 2
2021-12-03 Wish Classic 2021 Professional Gymnastics Center 3 8 Jr 8.850 2 9.400 3 9.600 1 9.425 3 37.275 2
2021-11-12 2021 Illinois NAWGJ Judges Cup Critique Meet Professional Gymnastics Center P01 8 All Ages 9.250 1 8.350 5 9.075 3 9.400 2 36.075 2
2021-04-23 Region 5 Level 7/8 Regional Championships Illinois State Team 08C 7 JR A2 9.375 4T 9.800 1 9.850 1 9.675 1 38.700 1
2021-04-09 Illinois Level 7 8 State Championships Professional Gymnastics Center 1 7 Jr A 9.400 6 9.575 9T 9.475 10T 9.675 2 38.125 5
2021-02-27 Yurchenko Invitational Professional Gymnastics Center 3 7 Junior A 9.375 1T 9.700 2 9.075 3T 9.800 1 37.950 1
2021-02-12 Super Girl Invite Professional Gymnastics Center 12 7 Younger 9.250 1 9.600 3 9.750 1 9.650 2T 38.250 1
2021-01-14 2021 Bravo Classic Professional Gymnastics Center 14 7 Jr 9.250 1T 9.050 7 9.350 4T 9.725 1 37.375 1
2020-12-18 Aspire Classic Professional Gymnastics Center 12 7 Younger 9.300 1 9.700 1 9.400 3 9.050 5 37.450 1T
2020-02-29 Yurchenko Invitational Professional Gymnastics Center 5 6 Level 6 Junior A 9.150 2 9.600 1 9.500 1 9.650 2 37.900 1
2020-02-07 IGI Chicago Style Meet Professional Gymnastics Center 212 6 A 9.200 1 9.400 2 8.900 14 9.600 1 37.100 2
2020-01-17 2020 Bravo Classic Professional Gymnastics Center 11A 6 Child 9.000 7 9.600 1T 9.650 1T 9.600 2 37.850 2
2020-01-10 St Jude Benefit Meet Professional Gymnastics Center 3B 6 Jr 8.575 14T 9.650 2 9.350 1 9.575 1 37.150 1
2019-12-20 2019 Women's Hawaiian Pineapple Classic Professional Gymnastics Center 3A 6 Ages 10U 8.900 5T 9.150 3T 9.275 3T 9.550 2T 36.875 2
2019-12-06 Ultimate Wish Classic Professional Gymnastics Center 8 6 CH 9.050 1 9.625 1 9.500 3T 9.550 1 37.725 1
2019-11-08 Illinois Judges Cup Professional Gymnastics Center P1 6 All Ages 8.900 18T 9.550 1 9.550 2 9.475 3T 37.475 1
2019-03-22 Illinois Gymnastics State Championships Professional Gymnastics Center 8 4 Ch C 9.100 5 9.400 5 8.900 22 9.625 2 37.025 6
2019-02-23 Kinetic Classic 2019 Professional Gymnastics Center 1 4 Younger 8.550 25 9.675 2 9.050 13T 9.500 1T 36.775 5
2019-01-11 Legacy Elite Classic Professional Gymnastics Center 5B 4 JrA 8.400 5 9.475 2 9.375 6 9.275 5 36.525 4
2018-12-14 Hawaiian Pineapple Classic Professional Gymnastics Center 1B 4 Ages8U 8.575 2 9.500 1 8.450 4 9.275 2 35.800 2
2018-11-30 Ultimate Wish Classic Professional Gymnastics Center 5 4 JR A 8.900 4 9.525 1 9.150 2T 9.125 2T 36.700 1
2018-02-17 Women's Midwest Open Viking Gymnastics Club 14 4 Jr A 8.000 15 8.425 12T 8.275 14 8.550 13 33.250 12
2018-01-12 St Jude Benefit Meet Viking Gymnastics Club 1A 4 JrA 7.250 18 7.200 17 8.500 11 7.625 18 30.575 17
2017-12-01 Ultimate Wish Classic Viking Gymnastics Club 10 4 Jr A 7.750 14 7.550 13 8.150 14 7.850 17 31.300 13T
2017-02-24 Elk Grove Invite Viking Gymnastics Club 5 3 6-8 yrs 8.350 8 7.150 8 8.600 7 8.575 6 32.675 8T
Get your scores on
a t-shirt, pin, or hoodie